createdAt,value
2019-05-11T00:01:18.903Z,10.70
2019-05-11T00:03:48.329Z,10.60
2019-05-11T00:06:18.080Z,10.50
2019-05-11T00:08:47.409Z,10.40
2019-05-11T00:11:16.757Z,10.40
2019-05-11T00:13:46.191Z,10.30
2019-05-11T00:16:18.911Z,10.20
2019-05-11T00:18:46.576Z,10.10
2019-05-11T00:21:15.929Z,10.00
2019-05-11T00:23:45.361Z,10.00
2019-05-11T00:26:14.759Z,9.90
2019-05-11T00:28:44.107Z,9.80
2019-05-11T00:31:13.491Z,9.80
2019-05-11T00:33:42.882Z,9.70
2019-05-11T00:36:12.275Z,9.60
2019-05-11T00:38:41.682Z,9.50
2019-05-11T00:41:11.147Z,9.50
2019-05-11T00:43:40.573Z,9.50
2019-05-11T00:46:09.998Z,9.40
2019-05-11T00:48:39.391Z,9.40
2019-05-11T00:51:08.726Z,9.40
2019-05-11T00:53:38.120Z,9.40
2019-05-11T00:56:07.465Z,9.50
2019-05-11T00:58:36.799Z,9.60
2019-05-11T01:01:06.294Z,9.60
2019-05-11T01:03:35.635Z,9.60
2019-05-11T01:06:05.087Z,9.70
2019-05-11T01:08:35.087Z,9.70
2019-05-11T01:11:04.458Z,9.80
2019-05-11T01:13:33.808Z,9.80
2019-05-11T01:16:03.131Z,9.90
2019-05-11T01:18:32.495Z,9.80
2019-05-11T01:21:01.879Z,9.80
2019-05-11T01:23:31.198Z,9.80
2019-05-11T01:26:00.523Z,9.70
2019-05-11T01:28:29.858Z,9.60
2019-05-11T01:30:59.189Z,9.60
2019-05-11T01:33:28.523Z,9.50
2019-05-11T01:35:57.854Z,9.50
2019-05-11T01:38:27.182Z,9.40
2019-05-11T01:40:58.545Z,9.30
2019-05-11T01:43:27.592Z,9.30
2019-05-11T01:45:56.907Z,9.20
2019-05-11T01:48:26.275Z,9.10
2019-05-11T01:50:55.614Z,9.10
2019-05-11T01:53:24.951Z,9.00
2019-05-11T01:55:54.308Z,8.90
2019-05-11T01:58:23.703Z,8.80
2019-05-11T02:00:53.068Z,8.70
2019-05-11T02:03:22.393Z,8.70
2019-05-11T02:05:52.804Z,8.60
2019-05-11T02:08:22.166Z,8.60
2019-05-11T02:10:51.573Z,8.60
2019-05-11T02:13:21.959Z,8.70
2019-05-11T02:15:51.281Z,8.70
2019-05-11T02:18:20.637Z,8.60
2019-05-11T02:20:49.985Z,8.70
2019-05-11T02:23:20.371Z,8.60
2019-05-11T02:25:49.759Z,8.60
2019-05-11T02:28:19.086Z,8.50
2019-05-11T02:30:48.431Z,8.50
2019-05-11T02:33:17.780Z,8.50
2019-05-11T02:35:47.206Z,8.50
2019-05-11T02:38:16.638Z,8.50
2019-05-11T02:40:46.021Z,8.50
2019-05-11T02:43:15.392Z,8.50
2019-05-11T02:45:44.919Z,8.50
2019-05-11T02:48:15.472Z,8.40
2019-05-11T02:50:45.054Z,8.40
2019-05-11T02:53:15.240Z,8.40
2019-05-11T02:55:47.488Z,8.40
2019-05-11T02:58:16.881Z,8.40
2019-05-11T03:00:46.425Z,8.40
2019-05-11T03:03:16.908Z,8.40
2019-05-11T03:05:46.314Z,8.40
2019-05-11T03:08:15.670Z,8.40
2019-05-11T03:10:44.987Z,8.40
2019-05-11T03:13:14.369Z,8.40
2019-05-11T03:15:44.887Z,8.30
2019-05-11T03:18:14.213Z,8.30
2019-05-11T03:20:43.554Z,8.30
2019-05-11T03:23:12.890Z,8.30
2019-05-11T03:25:42.209Z,8.30
2019-05-11T03:28:11.621Z,8.20
2019-05-11T03:30:41.083Z,8.20
2019-05-11T03:33:10.631Z,8.20
2019-05-11T03:35:39.954Z,8.20
2019-05-11T03:38:09.355Z,8.20
2019-05-11T03:40:38.696Z,8.30
2019-05-11T03:43:08.037Z,8.30
2019-05-11T03:45:37.451Z,8.40
2019-05-11T03:48:06.799Z,8.40
2019-05-11T03:50:36.232Z,8.50
2019-05-11T03:53:05.659Z,8.60
2019-05-11T03:55:35.059Z,8.70
2019-05-11T03:58:04.399Z,8.70
2019-05-11T04:00:33.775Z,8.70
2019-05-11T04:03:03.105Z,8.70
2019-05-11T04:05:32.544Z,8.80
2019-05-11T04:08:01.882Z,8.90
2019-05-11T04:10:31.281Z,8.90
2019-05-11T04:13:00.700Z,9.00
2019-05-11T04:15:30.073Z,9.00
2019-05-11T04:18:05.390Z,9.20
2019-05-11T04:20:34.738Z,9.20
2019-05-11T04:23:04.063Z,9.30
2019-05-11T04:25:33.423Z,9.40
2019-05-11T04:28:02.748Z,9.40
2019-05-11T04:30:32.071Z,9.50
2019-05-11T04:33:01.391Z,9.60
2019-05-11T04:35:30.728Z,9.70
2019-05-11T04:38:00.049Z,9.80
2019-05-11T04:40:30.566Z,10.00
2019-05-11T04:42:59.994Z,10.10
2019-05-11T04:45:29.352Z,10.10
2019-05-11T04:47:58.748Z,10.20
2019-05-11T04:50:29.258Z,10.20
2019-05-11T04:52:59.582Z,10.20
2019-05-11T04:55:28.942Z,10.20
2019-05-11T04:57:58.275Z,10.10
2019-05-11T05:00:27.776Z,10.10
2019-05-11T05:02:57.118Z,10.10
2019-05-11T05:05:26.457Z,10.20
2019-05-11T05:08:08.589Z,10.30
2019-05-11T05:10:27.840Z,10.40
2019-05-11T05:13:09.694Z,10.50
2019-05-11T05:15:29.357Z,10.60
2019-05-11T05:17:58.683Z,10.70
2019-05-11T05:20:28.034Z,10.80
2019-05-11T05:22:57.431Z,11.00
2019-05-11T05:25:26.801Z,11.00
2019-05-11T05:27:56.131Z,11.00
2019-05-11T05:30:25.500Z,11.20
2019-05-11T05:32:54.904Z,11.20
2019-05-11T05:35:27.919Z,11.30
2019-05-11T05:37:57.260Z,11.30
2019-05-11T05:40:26.609Z,11.40
2019-05-11T05:42:55.937Z,11.50
2019-05-11T05:45:25.392Z,11.60
2019-05-11T05:47:54.731Z,11.70
2019-05-11T05:50:24.067Z,11.80
2019-05-11T05:52:53.422Z,11.80
2019-05-11T05:55:25.607Z,11.80
2019-05-11T05:57:55.044Z,11.80
2019-05-11T06:00:24.375Z,11.90
2019-05-11T06:02:53.803Z,11.90
2019-05-11T06:05:23.215Z,11.90
2019-05-11T06:07:52.559Z,11.90
2019-05-11T06:10:21.925Z,12.00
2019-05-11T06:12:51.246Z,12.00
2019-05-11T06:15:20.687Z,11.90
2019-05-11T06:17:50.091Z,11.90
2019-05-11T06:20:19.583Z,11.90
2019-05-11T06:22:49.376Z,12.00
2019-05-11T06:25:19.755Z,12.20
2019-05-11T06:27:49.174Z,12.50
2019-05-11T06:30:18.678Z,12.70
2019-05-11T06:32:48.011Z,12.80
2019-05-11T06:35:17.630Z,12.90
2019-05-11T06:37:46.959Z,12.90
2019-05-11T06:40:18.718Z,13.00
2019-05-11T06:42:48.031Z,13.10
2019-05-11T06:45:18.442Z,13.30
2019-05-11T06:47:49.953Z,13.40
2019-05-11T06:50:19.416Z,13.50
2019-05-11T06:52:49.230Z,13.50
2019-05-11T06:55:19.652Z,13.60
2019-05-11T06:57:49.043Z,13.80
2019-05-11T07:00:18.925Z,13.90
2019-05-11T07:02:48.276Z,14.10
2019-05-11T07:05:17.593Z,14.40
2019-05-11T07:07:47.961Z,14.70
2019-05-11T07:10:17.725Z,14.90
2019-05-11T07:12:47.115Z,14.90
2019-05-11T07:15:16.519Z,14.80
2019-05-11T07:17:45.911Z,14.70
2019-05-11T07:20:15.321Z,14.70
2019-05-11T07:22:44.653Z,14.50
2019-05-11T07:25:14.215Z,14.50
2019-05-11T07:27:43.539Z,14.50
2019-05-11T07:30:13.285Z,14.60
2019-05-11T07:32:42.652Z,14.70
2019-05-11T07:35:12.834Z,14.70
2019-05-11T07:37:42.179Z,14.80
2019-05-11T07:40:11.580Z,14.90
2019-05-11T07:42:40.976Z,14.90
2019-05-11T07:45:10.668Z,14.90
2019-05-11T07:47:40.012Z,15.00
2019-05-11T07:50:09.527Z,15.10
2019-05-11T07:52:38.877Z,15.30
2019-05-11T07:55:09.631Z,15.40
2019-05-11T07:57:39.464Z,15.30
2019-05-11T08:00:10.779Z,15.30
2019-05-11T08:02:41.307Z,15.30
2019-05-11T08:05:11.048Z,15.30
2019-05-11T08:07:40.497Z,15.30
2019-05-11T08:10:11.668Z,15.40
2019-05-11T08:12:42.127Z,15.60
2019-05-11T08:15:13.608Z,15.70
2019-05-11T08:17:42.864Z,15.80
2019-05-11T08:20:12.696Z,16.00
2019-05-11T08:22:42.056Z,16.20
2019-05-11T08:25:11.560Z,16.40
2019-05-11T08:27:41.079Z,16.60
2019-05-11T08:30:12.054Z,16.80
2019-05-11T08:32:41.486Z,17.00
2019-05-11T08:35:11.363Z,16.90
2019-05-11T08:37:40.789Z,17.00
2019-05-11T08:40:11.068Z,17.00
2019-05-11T08:42:40.526Z,16.70
2019-05-11T08:45:20.404Z,16.50
2019-05-11T08:47:41.950Z,16.60
2019-05-11T08:50:15.188Z,16.60
2019-05-11T08:52:44.372Z,16.70
2019-05-11T08:55:13.976Z,16.80
2019-05-11T09:20:08.939Z,17.40
2019-05-11T09:22:39.826Z,17.70
2019-05-11T09:25:09.435Z,18.00
2019-05-11T09:27:38.767Z,18.20
2019-05-11T09:30:08.622Z,18.50
2019-05-11T09:32:38.658Z,18.70
2019-05-11T09:35:08.840Z,18.80
2019-05-11T09:37:38.340Z,19.00
2019-05-11T09:40:08.129Z,19.10
2019-05-11T09:42:38.927Z,18.90
2019-05-11T09:45:08.451Z,18.80
2019-05-11T09:47:41.587Z,18.80
2019-05-11T09:50:14.121Z,18.70
2019-05-11T09:52:43.475Z,18.60
2019-05-11T09:55:12.926Z,18.60
2019-05-11T09:57:42.325Z,18.60
2019-05-11T10:00:11.759Z,19.00
2019-05-11T10:02:41.103Z,19.20
2019-05-11T10:05:10.587Z,19.30
2019-05-11T10:07:39.916Z,19.00
2019-05-11T10:10:09.490Z,19.00
2019-05-11T10:12:39.059Z,19.10
2019-05-11T10:15:09.242Z,19.20
2019-05-11T10:17:38.695Z,19.00
2019-05-11T10:20:09.197Z,18.60
2019-05-11T10:22:39.175Z,18.30
2019-05-11T10:25:10.507Z,18.00
2019-05-11T10:27:39.973Z,17.80
2019-05-11T10:30:09.744Z,17.80
2019-05-11T10:32:41.171Z,17.90
2019-05-11T10:35:11.499Z,18.30
2019-05-11T10:37:40.831Z,18.30
2019-05-11T10:40:10.527Z,18.50
2019-05-11T10:42:39.851Z,18.90
2019-05-11T10:45:09.946Z,19.30
2019-05-11T10:47:39.301Z,19.60
2019-05-11T10:50:08.884Z,19.90
2019-05-11T10:52:38.291Z,19.70
2019-05-11T10:55:08.762Z,19.60
2019-05-11T10:57:39.429Z,19.70
2019-05-11T11:00:10.791Z,19.60
2019-05-11T11:02:40.153Z,19.60
2019-05-11T11:05:09.626Z,19.70
2019-05-11T11:07:38.983Z,19.90
2019-05-11T11:10:09.263Z,19.90
2019-05-11T11:12:38.779Z,19.90
2019-05-11T11:15:09.523Z,19.90
2019-05-11T11:17:38.880Z,20.00
2019-05-11T11:20:09.042Z,20.20
2019-05-11T11:22:43.007Z,20.50
2019-05-11T11:25:10.539Z,20.60
2019-05-11T11:27:39.904Z,20.40
2019-05-11T11:30:11.639Z,20.30
2019-05-11T11:32:41.121Z,20.40
2019-05-11T11:40:09.823Z,20.00
2019-05-11T11:42:39.152Z,20.00
2019-05-11T11:45:09.891Z,19.70
2019-05-11T11:47:39.218Z,19.60
2019-05-11T11:50:20.848Z,19.70
2019-05-11T11:52:50.410Z,19.70
2019-05-11T11:55:20.878Z,19.60
2019-05-11T11:57:50.545Z,19.60
2019-05-11T12:00:20.264Z,19.40
2019-05-11T12:02:49.650Z,19.20
2019-05-11T12:05:19.056Z,19.00
2019-05-11T12:07:49.109Z,18.90
2019-05-11T12:10:18.966Z,18.80
2019-05-11T12:12:48.419Z,18.80
2019-05-11T12:15:18.663Z,18.60
2019-05-11T12:17:48.410Z,18.60
2019-05-11T12:20:19.501Z,18.40
2019-05-11T12:22:48.824Z,18.30
2019-05-11T12:25:18.707Z,18.30
2019-05-11T12:27:49.182Z,18.30
2019-05-11T12:30:19.269Z,18.30
2019-05-11T12:32:50.432Z,18.10
2019-05-11T12:35:21.229Z,17.90
2019-05-11T12:37:50.581Z,17.50
2019-05-11T12:40:21.340Z,17.20
2019-05-11T12:42:50.830Z,17.10
2019-05-11T12:45:22.439Z,17.10
2019-05-11T12:47:51.821Z,17.10
2019-05-11T12:50:22.561Z,16.90
2019-05-11T12:52:51.925Z,16.80
2019-05-11T12:55:22.898Z,16.80
2019-05-11T12:57:52.248Z,16.80
2019-05-11T13:00:23.112Z,16.60
2019-05-11T13:02:52.452Z,16.70
2019-05-11T13:05:21.885Z,16.80
2019-05-11T13:07:51.245Z,16.90
2019-05-11T13:10:20.593Z,16.90
2019-05-11T13:12:49.980Z,16.90
2019-05-11T13:15:19.491Z,16.90
2019-05-11T13:17:49.326Z,17.00
2019-05-11T13:20:19.036Z,17.00
2019-05-11T13:22:49.039Z,17.00
2019-05-11T13:25:23.748Z,16.90
2019-05-11T13:27:53.242Z,16.90
2019-05-11T13:30:23.562Z,17.00
2019-05-11T13:32:54.126Z,17.00
2019-05-11T13:35:23.581Z,17.00
2019-05-11T13:37:52.966Z,17.10
2019-05-11T13:40:22.414Z,17.10
2019-05-11T13:42:52.806Z,17.10
2019-05-11T13:45:22.223Z,17.20
2019-05-11T13:47:55.837Z,17.40
2019-05-11T13:50:23.288Z,17.50
2019-05-11T13:52:53.293Z,17.40
2019-05-11T13:55:22.696Z,17.30
2019-05-11T13:57:53.655Z,17.20
2019-05-11T14:00:23.032Z,17.10
2019-05-11T14:02:52.656Z,17.10
2019-05-11T14:05:22.089Z,17.00
2019-05-11T14:07:51.506Z,16.90
2019-05-11T14:10:20.964Z,16.90
2019-05-11T14:12:50.446Z,16.80
2019-05-11T14:15:19.831Z,16.70
2019-05-11T14:18:04.441Z,16.60
2019-05-11T14:20:20.572Z,16.60
2019-05-11T14:22:49.940Z,16.60
2019-05-11T14:25:21.162Z,16.60
2019-05-11T14:27:53.068Z,16.40
2019-05-11T14:30:24.624Z,16.40
2019-05-11T14:32:54.083Z,16.40
2019-05-11T14:35:24.953Z,16.40
2019-05-11T14:37:55.110Z,16.30
2019-05-11T14:40:28.149Z,16.20
2019-05-11T14:42:58.182Z,16.10
2019-05-11T14:45:29.194Z,16.10
2019-05-11T14:47:58.569Z,16.10
2019-05-11T14:50:28.269Z,16.10
2019-05-11T14:52:58.237Z,16.00
2019-05-11T14:55:28.966Z,15.90
2019-05-11T14:57:58.726Z,15.90
2019-05-11T15:00:29.007Z,15.90
2019-05-11T15:02:58.754Z,16.00
2019-05-11T15:05:28.414Z,16.00
2019-05-11T15:07:58.280Z,16.00
2019-05-11T15:10:28.003Z,16.10
2019-05-11T15:12:59.110Z,16.10
2019-05-11T15:15:29.635Z,16.00
2019-05-11T15:17:59.452Z,16.00
2019-05-11T15:20:29.554Z,16.00
2019-05-11T15:22:58.977Z,15.90
2019-05-11T15:25:28.875Z,15.90
2019-05-11T15:27:58.710Z,15.90
2019-05-11T15:30:28.825Z,15.80
2019-05-11T15:32:58.645Z,15.60
2019-05-11T15:35:28.713Z,15.50
2019-05-11T15:37:58.427Z,15.40
2019-05-11T15:40:28.051Z,15.30
2019-05-11T15:42:58.562Z,15.30
2019-05-11T15:45:28.229Z,15.30
2019-05-11T15:47:58.858Z,15.20
2019-05-11T15:50:30.129Z,15.20
2019-05-11T15:52:59.505Z,15.20
2019-05-11T15:55:28.851Z,15.10
2019-05-11T15:57:58.207Z,15.00
2019-05-11T16:00:27.712Z,14.90
2019-05-11T16:02:57.863Z,14.70
2019-05-11T16:05:28.555Z,14.60
2019-05-11T16:07:58.865Z,14.50
2019-05-11T16:10:29.487Z,14.40
2019-05-11T16:12:59.444Z,14.40
2019-05-11T16:15:29.718Z,14.30
2019-05-11T16:17:59.158Z,14.30
2019-05-11T16:20:29.341Z,14.20
2019-05-11T16:22:58.918Z,14.20
2019-05-11T16:25:28.378Z,14.20
2019-05-11T16:27:57.741Z,14.10
2019-05-11T16:30:28.770Z,14.10
2019-05-11T16:32:58.608Z,14.10
2019-05-11T16:35:28.179Z,14.00
2019-05-11T16:37:59.261Z,14.00
2019-05-11T16:40:29.559Z,14.00
2019-05-11T16:42:59.169Z,14.00
2019-05-11T16:45:29.614Z,14.00
2019-05-11T16:47:59.092Z,14.00
2019-05-11T16:50:28.544Z,14.00
2019-05-11T16:52:58.470Z,14.00
2019-05-11T16:55:29.274Z,13.90
2019-05-11T16:57:58.923Z,13.90
2019-05-11T17:00:28.458Z,13.80
2019-05-11T17:02:57.904Z,13.80
2019-05-11T17:05:30.524Z,13.80
2019-05-11T17:07:58.732Z,13.70
2019-05-11T17:10:29.982Z,13.70
2019-05-11T17:12:59.403Z,13.70
2019-05-11T17:15:29.042Z,13.70
2019-05-11T17:17:58.829Z,13.70
2019-05-11T17:20:28.447Z,13.60
2019-05-11T17:22:57.793Z,13.50
2019-05-11T17:25:28.825Z,13.50
2019-05-11T17:27:58.792Z,13.50
2019-05-11T17:30:28.369Z,13.30
2019-05-11T17:32:59.379Z,13.30
2019-05-11T17:35:28.865Z,13.30
2019-05-11T17:37:58.289Z,13.40
2019-05-11T17:40:28.538Z,13.40
2019-05-11T17:43:00.333Z,13.40
2019-05-11T17:45:29.658Z,13.40
2019-05-11T17:48:00.499Z,13.50
2019-05-11T17:50:29.880Z,13.40
2019-05-11T17:52:59.327Z,13.40
2019-05-11T17:55:38.286Z,13.30
2019-05-11T17:58:08.689Z,13.30
2019-05-11T18:00:39.208Z,13.30
2019-05-11T18:03:11.454Z,13.30
2019-05-11T18:05:40.016Z,13.30
2019-05-11T18:08:09.369Z,13.30
2019-05-11T18:10:38.773Z,13.20
2019-05-11T18:13:08.179Z,13.20
2019-05-11T18:15:38.192Z,13.20
2019-05-11T18:18:09.381Z,13.10
2019-05-11T18:20:38.961Z,13.10
2019-05-11T18:23:08.442Z,13.10
2019-05-11T18:25:38.988Z,13.00
2019-05-11T18:28:08.659Z,13.00
2019-05-11T18:30:38.750Z,13.00
2019-05-11T18:33:09.415Z,13.00
2019-05-11T18:35:38.968Z,12.90
2019-05-11T18:38:08.718Z,12.90
2019-05-11T18:40:38.355Z,12.90
2019-05-11T18:43:08.626Z,12.90
2019-05-11T18:45:38.528Z,12.80
2019-05-11T18:48:08.277Z,12.80
2019-05-11T18:50:38.480Z,12.70
2019-05-11T18:53:09.234Z,12.70
2019-05-11T18:55:55.366Z,12.70
2019-05-11T18:58:25.088Z,12.70
2019-05-11T19:00:54.454Z,12.60
2019-05-11T19:03:24.996Z,12.60
2019-05-11T19:05:57.557Z,12.60
2019-05-11T19:08:27.547Z,12.60
2019-05-11T19:10:58.020Z,12.60
2019-05-11T19:13:28.728Z,12.50
2019-05-11T19:15:59.167Z,12.50
2019-05-11T19:18:29.051Z,12.50
2019-05-11T19:20:58.825Z,12.50
2019-05-11T19:23:29.340Z,12.40
2019-05-11T19:25:58.692Z,12.40
2019-05-11T19:28:29.202Z,12.40
2019-05-11T19:30:59.155Z,12.40
2019-05-11T19:33:30.595Z,12.40
2019-05-11T19:36:01.028Z,12.30
2019-05-11T19:38:30.453Z,12.30
2019-05-11T19:40:59.837Z,12.30
2019-05-11T19:43:29.248Z,12.20
2019-05-11T19:45:58.660Z,12.10
2019-05-11T19:48:28.221Z,12.00
2019-05-11T19:51:04.603Z,11.90
2019-05-11T19:53:30.481Z,11.90
2019-05-11T19:55:59.871Z,11.80
2019-05-11T19:58:30.160Z,11.80
2019-05-11T20:00:59.529Z,11.70
2019-05-11T20:03:29.621Z,11.70
2019-05-11T20:05:59.044Z,11.70
2019-05-11T20:08:29.105Z,11.60
2019-05-11T20:10:58.713Z,11.60
2019-05-11T20:13:29.141Z,11.50
2019-05-11T20:15:58.489Z,11.50
2019-05-11T20:18:28.818Z,11.50
2019-05-11T20:20:58.495Z,11.50
2019-05-11T20:23:27.838Z,11.40
2019-05-11T20:25:58.249Z,11.40
2019-05-11T20:28:28.463Z,11.40
2019-05-11T20:30:58.762Z,11.40
2019-05-11T20:33:28.303Z,11.40
2019-05-11T20:35:59.328Z,11.40
2019-05-11T20:38:28.690Z,11.40
2019-05-11T20:40:58.038Z,11.30
2019-05-11T20:43:28.024Z,11.40
2019-05-11T20:45:57.570Z,11.40
2019-05-11T20:48:27.734Z,11.30
2019-05-11T20:50:58.247Z,11.40
2019-05-11T20:53:28.892Z,11.30
2019-05-11T20:55:58.444Z,11.30
2019-05-11T20:58:28.893Z,11.30
2019-05-11T21:01:00.888Z,11.30
2019-05-11T21:03:30.343Z,11.30
2019-05-11T21:06:02.935Z,11.30
2019-05-11T21:08:39.183Z,11.20
2019-05-11T21:11:08.778Z,11.20
2019-05-11T21:13:38.549Z,11.20
2019-05-11T21:16:08.721Z,11.20
2019-05-11T21:18:39.800Z,11.20
2019-05-11T21:21:09.241Z,11.10
2019-05-11T21:23:40.712Z,11.10
2019-05-11T21:26:10.356Z,11.00
2019-05-11T21:28:39.691Z,11.00
2019-05-11T21:31:09.046Z,11.00
2019-05-11T21:33:38.440Z,11.00
2019-05-11T21:36:09.218Z,11.00
2019-05-11T21:38:38.718Z,11.00
2019-05-11T21:41:08.732Z,11.00
2019-05-11T21:43:39.193Z,10.90
2019-05-11T21:46:09.272Z,10.90
2019-05-11T21:48:38.687Z,10.90
2019-05-11T21:51:08.712Z,10.90
2019-05-11T21:53:38.578Z,10.90
2019-05-11T21:56:08.292Z,10.90
2019-05-11T21:58:37.943Z,10.90
2019-05-11T22:01:07.539Z,10.90
2019-05-11T22:03:38.273Z,10.90
2019-05-11T22:06:08.580Z,10.90
2019-05-11T22:08:38.224Z,10.90
2019-05-11T22:11:08.730Z,10.90
2019-05-11T22:13:38.263Z,10.90
2019-05-11T22:16:08.689Z,10.80
2019-05-11T22:18:38.250Z,10.90
2019-05-11T22:21:09.068Z,10.90
2019-05-11T22:23:38.677Z,10.90
2019-05-11T22:26:08.075Z,10.80
2019-05-11T22:28:38.950Z,10.80
2019-05-11T22:31:08.466Z,10.80
2019-05-11T22:33:38.554Z,10.70
2019-05-11T22:36:08.047Z,10.70
2019-05-11T22:38:38.677Z,10.70
2019-05-11T22:41:09.104Z,10.70
2019-05-11T22:43:38.639Z,10.70
2019-05-11T22:46:08.104Z,10.60
2019-05-11T22:48:38.109Z,10.70
2019-05-11T22:51:08.070Z,10.60
2019-05-11T22:53:44.789Z,10.60
2019-05-11T22:56:08.680Z,10.60
2019-05-11T22:58:38.009Z,10.60
2019-05-11T23:01:08.492Z,10.50
2019-05-11T23:03:38.378Z,10.50
2019-05-11T23:06:08.624Z,10.50
2019-05-11T23:08:38.374Z,10.50
2019-05-11T23:11:10.233Z,10.50
2019-05-11T23:13:38.791Z,10.50
2019-05-11T23:16:08.589Z,10.40
2019-05-11T23:18:38.977Z,10.50
2019-05-11T23:21:08.786Z,10.50
2019-05-11T23:23:38.388Z,10.40
2019-05-11T23:26:08.590Z,10.40
2019-05-11T23:28:38.176Z,10.40
2019-05-11T23:31:09.002Z,10.40
2019-05-11T23:33:38.751Z,10.40
2019-05-11T23:36:08.117Z,10.30
2019-05-11T23:38:38.686Z,10.30
2019-05-11T23:41:08.484Z,10.30
2019-05-11T23:43:38.406Z,10.30
2019-05-11T23:46:08.395Z,10.30
2019-05-11T23:48:38.548Z,10.30
2019-05-11T23:51:09.082Z,10.20
2019-05-11T23:53:38.834Z,10.20
2019-05-11T23:59:18.783Z,10.20
